YDON weather

Dowerin Airport
Western Australia, Australia

Public forecast

Using degrees Celsius for public forecast. Weather courtesy of forecast.io.

METAR (pilot weather report)

Closest report is RAAF Base Pearce, 60.5 nm (112.0 km) WSW. Retrieved 2019/03/25 23:30 UTC (7 minutes ago):

YPEA 252330Z 06009KT CAVOK 20/04 Q1018 FM2330 MOD TURB BLW 3000FT TILL 0100

TAF (pilot weather forecast)

Closest forecast is RAAF Base Pearce, 60.5 nm (112.0 km) WSW. Retrieved 2019/03/25 18:00 UTC (6 hours ago):

TAF YPEA 251703Z 2518/2612 09010KT CAVOK FM252000 08016G26KT CAVOK FM260100 05012KT CAVOK